Flight Track Log - Related Links

Times and Time Zones

All times are in EDT time to prevent confusion due to time zone crossing. See the GJS3657 flight status page for this flight to view local times or setup timezone preferences in your user account.

Time Position Orientation Groundspeed Altitude Reporting Facility
EDT Latitude Longitude Course Direction KTS MPH feet Rate Location/Type
Mon 07:20:11 AM 42.7672 -73.8061 333° Northwest 144 166 1,100  Level Boston Center
Mon 07:21:06 AM 42.8086 -73.8353 333° Northwest 201 231 2,600 1,959 Climbing Boston Center
Mon 07:22:38 AM 42.8783 -73.9219 318° Northwest 258 297 5,900 2,526 Climbing Boston Center
Mon 07:23:38 AM 42.9400 -73.9914 321° Northwest 264 304 9,000 2,650 Climbing Boston Center
Mon 07:24:38 AM 42.9956 -74.0497 322° Northwest 272 313 11,200 1,950 Climbing Boston Center
Mon 07:25:38 AM 43.0672 -74.1283 321° Northwest 286 329 12,900 1,550 Climbing Boston Center
Mon 07:26:38 AM 43.1139 -74.2178 306° West 313 360 14,300 1,700 Climbing Boston Center
Mon 07:27:38 AM 43.1200 -74.3572 273° West 316 364 16,300 1,800 Climbing Boston Center
Mon 07:28:38 AM 43.1239 -74.4939 272° West 345 397 17,900 1,550 Climbing Boston Center
Mon 07:29:38 AM 43.1275 -74.6306 272° West 357 411 19,400 1,450 Climbing Boston Center
Mon 07:30:38 AM 43.1311 -74.7703 272° West 367 422 20,800 1,400 Climbing Boston Center
Mon 07:31:38 AM 43.1344 -74.9097 272° West 372 428 22,200 1,400 Climbing Boston Center
Mon 07:32:38 AM 43.1394 -75.0581 273° West 378 435 23,600 1,350 Climbing Boston Center
Mon 07:33:38 AM 43.1422 -75.2033 272° West 384 442 24,900 1,300 Climbing Boston Center
Mon 07:34:38 AM 43.1447 -75.3486 271° West 384 442 26,200 1,250 Climbing Boston Center
Mon 07:35:38 AM 43.1494 -75.4911 273° West 384 442 27,400 1,250 Climbing Boston Center
Mon 07:36:38 AM 43.1664 -75.6372 279° West 384 442 28,700 1,300 Climbing Boston Center
Mon 07:37:38 AM 43.1981 -75.7669 289° West 379 436 30,000 700 Climbing Boston Center
Mon 07:38:38 AM 43.2317 -75.8942 290° West 366 421 30,100 350 Climbing Boston Center
Mon 07:39:38 AM 43.2358 -76.0314 272° West 361 415 30,700 500 Climbing Boston Center
Mon 07:40:38 AM 43.2333 -76.1767 269° West 366 421 31,100 644 Climbing Boston Center
Mon 07:42:07 AM 43.2286 -76.3972 268° West 375 432 32,300 926 Climbing Cleveland Center
Mon 07:43:07 AM 43.2256 -76.5428 268° West 386 444 33,400 950 Climbing Cleveland Center
Mon 07:44:07 AM 43.2242 -76.6883 269° West 386 444 34,200 800 Climbing Cleveland Center
Mon 07:45:07 AM 43.2206 -76.8308 268° West 386 444 35,000 800 Climbing Cleveland Center
Mon 07:46:07 AM 43.2169 -76.9794 268° West 386 444 35,800 750 Climbing Cleveland Center
Mon 07:47:07 AM 43.2125 -77.1050 267° West 378 435 36,500 650 Climbing Cleveland Center
Mon 07:48:07 AM 43.2083 -77.2478 268° West 378 435 37,100 550 Climbing Cleveland Center
Mon 07:49:07 AM 43.2061 -77.3903 269° West 378 435 37,600 450 Climbing Cleveland Center
Mon 07:50:07 AM 43.2019 -77.5472 268° West 378 435 38,000 200 Climbing Cleveland Center
Mon 07:51:07 AM 43.1972 -77.6928 268° West 378 435 38,000  Level Cleveland Center
Mon 07:52:07 AM 43.1925 -77.8381 267° West 383 441 38,000  Level Cleveland Center
Mon 07:53:07 AM 43.1897 -77.9833 269° West 388 447 38,000  Level Cleveland Center
Mon 07:54:07 AM 43.1844 -78.1289 267° West 388 447 38,000  Level Cleveland Center
Mon 07:55:07 AM 43.1792 -78.2744 267° West 388 447 38,000  Level Cleveland Center
Mon 07:56:07 AM 43.1714 -78.4169 266° West 388 447 38,000  Level Cleveland Center
Mon 07:57:07 AM 43.1681 -78.5681 268° West 388 447 38,000  Level Cleveland Center
Mon 07:58:07 AM 43.1619 -78.7133 267° West 388 447 38,000  Level Cleveland Center
Mon 07:59:07 AM 43.1539 -78.8672 266° West 388 447 38,000  Level Cleveland Center
Mon 07:59:32 AM 43.1500 -78.9000 261° West 400 460 38,000  Level Toronto Center
Mon 08:00:32 AM 43.1333 -79.0667 262° West 400 460 38,000  Level Toronto Center
Mon 08:01:32 AM 43.1333 -79.2000 270° West 390 449 38,000  Level Toronto Center
Mon 08:02:32 AM 43.1167 -79.3667 262° West 390 449 38,000  Level Toronto Center
Mon 08:03:32 AM 43.1167 -79.5000 270° West 380 437 38,000  Level Toronto Center
Mon 08:04:32 AM 43.1167 -79.6333 270° West 380 437 38,000  Level Toronto Center
Mon 08:05:32 AM 43.1000 -79.8000 262° West 380 437 38,000  Level Toronto Center
Mon 08:06:32 AM 43.1000 -79.9333 270° West 380 437 38,000  Level Toronto Center
Mon 08:07:32 AM 43.0833 -80.0667 260° West 390 449 38,000  Level Toronto Center
Mon 08:08:32 AM 43.0833 -80.2333 270° West 390 449 38,000  Level Toronto Center
Mon 08:09:32 AM 43.0667 -80.3667 260° West 390 449 38,000  Level Toronto Center
Mon 08:10:32 AM 43.0667 -80.5167 270° West 390 449 38,000  Level Toronto Center
Mon 08:11:32 AM 43.0667 -80.6667 270° West 390 449 38,000  Level Toronto Center
Mon 08:12:32 AM 43.0333 -80.8167 253° West 380 437 38,000  Level Toronto Center
Mon 08:13:32 AM 43.0333 -80.9500 270° West 380 437 38,000  Level Toronto Center
Mon 08:14:32 AM 43.0167 -81.1000 261° West 380 437 38,000  Level Toronto Center
Mon 08:15:32 AM 43.0167 -81.2500 270° West 380 437 38,000  Level Toronto Center
Mon 08:16:32 AM 43.0167 -81.3833 270° West 390 449 38,000  Level Toronto Center
Mon 08:17:32 AM 43.0167 -81.5500 270° West 390 449 38,000  Level Toronto Center
Mon 08:18:32 AM 43.0167 -81.6833 270° West 400 460 38,000  Level Toronto Center
Mon 08:19:32 AM 43.0167 -81.8500 270° West 400 460 38,000  Level Toronto Center
Mon 08:20:32 AM 43.0000 -82.0000 261° West 410 472 38,000  Level Toronto Center
Mon 08:21:32 AM 43.0000 -82.1667 270° West 410 472 38,000  Level Toronto Center
Mon 08:22:32 AM 43.0000 -82.3167 270° West 410 472 38,000  Level Toronto Center
Mon 08:23:32 AM 43.0000 -82.4833 270° West 410 472 38,000  Level Toronto Center
Mon 08:24:32 AM 42.9833 -82.6500 262° West 410 472 38,000  Level Toronto Center
Mon 08:25:07 AM 43.0028 -82.7322 288° West 419 482 38,000  Level Cleveland Center
Mon 08:26:07 AM 42.9978 -82.8881 268° West 419 482 38,000  Level Cleveland Center
Mon 08:27:07 AM 42.9944 -83.0500 268° West 424 488 38,000  Level Cleveland Center
Mon 08:28:07 AM 42.9869 -83.2058 266° West 417 480 38,000  Level Cleveland Center
Mon 08:29:07 AM 42.9808 -83.3672 267° West 424 488 38,000 -250 Level Cleveland Center
Mon 08:30:07 AM 42.9750 -83.5258 267° West 424 488 37,500 -3,000 Descending Cleveland Center
Mon 08:31:07 AM 42.9647 -83.6731 265° West 431 496 32,000 -750 Descending Cleveland Center
Mon 08:32:07 AM 42.9606 -83.8261 268° West 431 496 36,000 1,450 Climbing Cleveland Center
Mon 08:33:07 AM 42.9433 -83.9953 262° West 409 471 34,900 -1,050 Descending Cleveland Center
Mon 08:34:07 AM 42.9286 -84.1392 262° West 398 458 33,900 -909 Descending Cleveland Center
Mon 08:34:46 AM 42.9233 -84.2058 264° West 395 455 33,400 -950 Descending Chicago Center
Mon 08:35:48 AM 42.9028 -84.3897 261° West 410 472 32,300 -677 Descending Chicago Center
Mon 08:36:50 AM 42.8878 -84.5461 263° West 417 480 32,000 -144 Descending Chicago Center
Mon 08:37:53 AM 42.8714 -84.7025 262° West 418 481 32,000  Level Chicago Center
Mon 08:38:55 AM 42.8553 -84.8603 262° West 421 484 32,000  Level Chicago Center
Mon 08:39:57 AM 42.8383 -85.0189 262° West 424 488 32,000  Level Chicago Center
Mon 08:40:59 AM 42.8214 -85.1778 262° West 424 488 32,000 -871 Level Chicago Center
Mon 08:42:01 AM 42.8008 -85.3708 262° West 431 496 30,200 -1,742 Descending Chicago Center
Mon 08:43:03 AM 42.7794 -85.5350 260° West 439 505 28,400 -1,790 Descending Chicago Center
Mon 08:44:05 AM 42.7517 -85.6908 256° West 425 489 26,500 -1,790 Descending Chicago Center
Mon 08:45:07 AM 42.7236 -85.8389 256° West 405 466 24,700 -1,742 Descending Chicago Center
Mon 08:46:09 AM 42.6972 -85.9814 256° West 390 449 22,900 -1,742 Descending Chicago Center
Mon 08:47:11 AM 42.6711 -86.1267 256° West 393 452 21,100 -1,742 Descending Chicago Center
Mon 08:48:13 AM 42.6444 -86.2714 256° West 394 453 19,300 -1,935 Descending Chicago Center
Mon 08:49:15 AM 42.6128 -86.4378 256° West 379 436 17,100 -1,887 Descending Chicago Center
Mon 08:50:17 AM 42.5875 -86.5744 256° West 372 428 15,400 -1,548 Descending Chicago Center
Mon 08:51:19 AM 42.5636 -86.7094 257° West 369 425 13,900 -1,403 Descending Chicago Center
Mon 08:52:21 AM 42.5322 -86.8372 252° West 361 415 12,500 -1,306 Descending Chicago Center
Mon 08:53:23 AM 42.4978 -86.9583 249° West 349 402 11,200 -1,065 Descending Chicago Center
Mon 08:54:25 AM 42.4647 -87.0733 249° West 328 377 10,300 -774 Descending Chicago Center
Mon 08:55:27 AM 42.4364 -87.1744 249° West 294 338 9,600 -629 Descending Chicago Center
Mon 08:56:29 AM 42.3481 -87.2225 202° Southwest 291 335 9,000 -290 Descending Chicago Center
Mon 08:57:31 AM 42.2656 -87.2222 180° South 293 337 9,000 -387 Level Chicago Center
Mon 08:58:33 AM 42.1875 -87.2475 193° South 293 337 8,200 -762 Descending Chicago Center
Mon 08:59:37 AM 42.1114 -87.2725 194° South 283 326 7,400 -524 Descending Chicago Center
Mon 09:00:39 AM 42.0383 -87.3017 197° South 277 319 7,100 -194 Descending Chicago Center
Mon 09:01:41 AM 41.9883 -87.3942 234° Southwest 278 320 7,000 -48 Descending Chicago Center
Mon 09:02:43 AM 41.9831 -87.4958 266° West 281 323 7,000 -581 Level Chicago Center
Mon 09:03:45 AM 41.9822 -87.5867 269° West 254 292 5,800 -1,548 Descending Chicago Center
Mon 09:04:47 AM 41.9828 -87.6694 271° West 233 268 3,800 -1,452 Descending Chicago Center
Mon 09:05:49 AM 41.9825 -87.7411 270° West 215 247 2,800 -1,008 Descending Chicago Center
Mon 09:06:52 AM 41.9842 -87.8203 272° West 191 220 1,700 -720 Descending Chicago Center
Mon 09:07:54 AM 41.9853 -87.8683 272° West 177 204 1,300 -387 Descending Chicago Center
Mon 09:10:00 AM 41.9667 -87.9000 217° Southwest  Level FlightAware Approximate

Login

Don't have an account? Register now (free) for customized features, flight alerts, and more!